createdAt,value
2022-08-28T00:00:46.674Z,1013.1
2022-08-28T00:01:55.854Z,1013
2022-08-28T00:03:05.028Z,1013.1
2022-08-28T00:04:13.220Z,1013.1
2022-08-28T00:05:21.411Z,1013.1
2022-08-28T00:06:30.576Z,1013.1
2022-08-28T00:07:39.757Z,1013.1
2022-08-28T00:08:48.918Z,1013.1
2022-08-28T00:09:58.096Z,1013.1
2022-08-28T00:11:07.269Z,1013
2022-08-28T00:12:16.440Z,1013
2022-08-28T00:13:25.615Z,1013
2022-08-28T00:14:34.791Z,1013
2022-08-28T00:15:43.952Z,1013
2022-08-28T00:16:53.124Z,1013
2022-08-28T00:18:02.307Z,1013
2022-08-28T00:19:11.490Z,1013
2022-08-28T00:20:19.673Z,1013
2022-08-28T00:21:28.843Z,1013
2022-08-28T00:22:38.040Z,1013
2022-08-28T00:23:47.188Z,1013.1
2022-08-28T00:24:55.370Z,1013
2022-08-28T00:26:03.562Z,1013
2022-08-28T00:27:12.748Z,1013.1
2022-08-28T00:28:21.905Z,1013
2022-08-28T00:29:31.080Z,1013.1
2022-08-28T00:30:40.265Z,1013.1
2022-08-28T00:31:49.445Z,1013.1
2022-08-28T00:32:58.596Z,1013.1
2022-08-28T00:34:07.779Z,1013.1
2022-08-28T00:35:16.962Z,1013
2022-08-28T00:36:26.118Z,1013.1
2022-08-28T00:37:35.293Z,1013.1
2022-08-28T00:38:44.465Z,1013
2022-08-28T00:39:53.634Z,1013
2022-08-28T00:41:01.826Z,1013
2022-08-28T00:42:11.010Z,1013
2022-08-28T00:43:20.168Z,1013
2022-08-28T00:44:29.339Z,1013
2022-08-28T00:45:38.527Z,1013.1
2022-08-28T00:46:47.693Z,1013
2022-08-28T00:47:56.865Z,1013
2022-08-28T00:49:05.058Z,1013.1
2022-08-28T00:50:13.251Z,1013
2022-08-28T00:51:22.418Z,1013.1
2022-08-28T00:52:31.595Z,1013.1
2022-08-28T00:53:40.762Z,1013
2022-08-28T00:54:49.947Z,1013
2022-08-28T00:58:17.470Z,1013
2022-08-28T00:59:25.647Z,1012.9
2022-08-28T01:00:33.844Z,1013
2022-08-28T01:01:43.004Z,1013
2022-08-28T01:04:01.351Z,1013
2022-08-28T01:05:10.522Z,1013
2022-08-28T01:06:19.699Z,1013
2022-08-28T01:07:28.880Z,1013
2022-08-28T01:08:38.036Z,1013
2022-08-28T01:09:47.220Z,1013
2022-08-28T01:10:56.403Z,1013
2022-08-28T01:12:05.571Z,1013.1
2022-08-28T01:13:14.734Z,1013.1
2022-08-28T01:14:23.908Z,1013.1
2022-08-28T01:15:33.069Z,1013.1
2022-08-28T01:16:41.271Z,1013
2022-08-28T01:17:50.445Z,1013
2022-08-28T01:18:59.608Z,1013.1
2022-08-28T01:20:08.788Z,1013
2022-08-28T01:21:17.959Z,1013.1
2022-08-28T01:22:27.122Z,1013
2022-08-28T01:23:36.295Z,1013.1
2022-08-28T01:24:45.474Z,1013.1
2022-08-28T01:25:54.651Z,1013.1
2022-08-28T01:27:03.825Z,1013.1
2022-08-28T01:28:12.997Z,1013.1
2022-08-28T01:29:22.163Z,1013.1
2022-08-28T01:30:31.335Z,1013.1
2022-08-28T01:32:48.692Z,1013.1
2022-08-28T01:33:57.871Z,1013.1
2022-08-28T01:35:07.043Z,1013.1
2022-08-28T01:36:16.215Z,1013.1
2022-08-28T01:37:25.381Z,1013.1
2022-08-28T01:38:34.553Z,1013.1
2022-08-28T01:39:43.718Z,1013.1
2022-08-28T01:40:52.906Z,1013.2
2022-08-28T01:42:02.076Z,1013.2
2022-08-28T01:43:11.262Z,1013.2
2022-08-28T01:44:20.429Z,1013.2
2022-08-28T01:45:29.604Z,1013.2
2022-08-28T01:46:37.769Z,1013.2
2022-08-28T01:47:46.946Z,1013.2
2022-08-28T01:48:56.139Z,1013.2
2022-08-28T01:50:05.297Z,1013.2
2022-08-28T01:51:14.468Z,1013.2
2022-08-28T01:52:23.640Z,1013.2
2022-08-28T01:53:32.819Z,1013.3
2022-08-28T01:54:41.988Z,1013.3
2022-08-28T01:55:51.156Z,1013.3
2022-08-28T01:57:00.341Z,1013.3
2022-08-28T01:58:09.503Z,1013.3
2022-08-28T01:59:18.684Z,1013.3
2022-08-28T02:00:27.851Z,1013.3
2022-08-28T02:01:36.049Z,1013.3
2022-08-28T02:02:45.211Z,1013.3
2022-08-28T02:03:54.395Z,1013.3
2022-08-28T02:05:03.562Z,1013.3
2022-08-28T02:06:12.723Z,1013.3
2022-08-28T02:07:21.903Z,1013.3
2022-08-28T02:08:31.077Z,1013.3
2022-08-28T02:09:40.247Z,1013.4
2022-08-28T02:10:49.419Z,1013.4
2022-08-28T02:11:58.600Z,1013.3
2022-08-28T02:13:07.780Z,1013.3
2022-08-28T02:14:16.939Z,1013.3
2022-08-28T02:15:26.137Z,1013.3
2022-08-28T02:16:34.305Z,1013.3
2022-08-28T02:17:43.481Z,1013.4
2022-08-28T02:18:52.649Z,1013.3
2022-08-28T02:20:01.818Z,1013.4
2022-08-28T02:21:10.984Z,1013.4
2022-08-28T02:22:19.189Z,1013.4
2022-08-28T02:23:28.364Z,1013.4
2022-08-28T02:24:36.542Z,1013.4
2022-08-28T02:25:45.712Z,1013.4
2022-08-28T02:26:54.891Z,1013.4
2022-08-28T02:28:04.057Z,1013.4
2022-08-28T02:29:13.229Z,1013.4
2022-08-28T02:30:22.416Z,1013.4
2022-08-28T02:31:31.583Z,1013.4
2022-08-28T02:32:40.754Z,1013.5
2022-08-28T02:33:49.927Z,1013.5
2022-08-28T02:34:59.098Z,1013.4
2022-08-28T02:36:08.278Z,1013.5
2022-08-28T02:37:17.452Z,1013.5
2022-08-28T02:38:26.616Z,1013.5
2022-08-28T02:39:34.817Z,1013.4
2022-08-28T02:41:52.172Z,1013.4
2022-08-28T02:43:00.360Z,1013.4
2022-08-28T02:44:09.535Z,1013.4
2022-08-28T02:45:18.714Z,1013.4
2022-08-28T02:46:27.886Z,1013.4
2022-08-28T02:47:37.054Z,1013.4
2022-08-28T02:48:46.225Z,1013.5
2022-08-28T02:49:55.395Z,1013.5
2022-08-28T02:51:04.590Z,1013.4
2022-08-28T02:52:13.747Z,1013.5
2022-08-28T02:53:22.920Z,1013.5
2022-08-28T02:54:32.099Z,1013.4
2022-08-28T02:55:41.279Z,1013.4
2022-08-28T02:56:50.435Z,1013.4
2022-08-28T02:57:58.625Z,1013.4
2022-08-28T02:59:07.799Z,1013.5
2022-08-28T03:00:16.987Z,1013.4
2022-08-28T03:01:26.153Z,1013.5
2022-08-28T03:02:35.306Z,1013.4
2022-08-28T03:03:44.493Z,1013.5
2022-08-28T03:04:53.649Z,1013.5
2022-08-28T03:06:02.835Z,1013.4
2022-08-28T03:07:12.002Z,1013.5
2022-08-28T03:08:21.164Z,1013.5
2022-08-28T03:09:30.349Z,1013.5
2022-08-28T03:10:39.513Z,1013.5
2022-08-28T03:11:48.695Z,1013.5
2022-08-28T03:12:56.871Z,1013.4
2022-08-28T03:14:06.053Z,1013.5
2022-08-28T03:15:15.217Z,1013.4
2022-08-28T03:16:24.398Z,1013.5
2022-08-28T03:17:33.581Z,1013.5
2022-08-28T03:18:42.733Z,1013.5
2022-08-28T03:19:51.917Z,1013.6
2022-08-28T03:21:01.091Z,1013.6
2022-08-28T03:22:10.265Z,1013.6
2022-08-28T03:23:19.426Z,1013.5
2022-08-28T03:24:28.608Z,1013.6
2022-08-28T03:25:37.774Z,1013.6
2022-08-28T03:26:46.939Z,1013.7
2022-08-28T03:27:55.140Z,1013.6
2022-08-28T03:29:04.308Z,1013.7
2022-08-28T03:30:13.485Z,1013.6
2022-08-28T03:31:22.656Z,1013.6
2022-08-28T03:32:31.822Z,1013.7
2022-08-28T03:33:41.006Z,1013.6
2022-08-28T03:34:49.182Z,1013.6
2022-08-28T03:35:57.381Z,1013.6
2022-08-28T03:37:06.541Z,1013.6
2022-08-28T03:39:24.888Z,1013.6
2022-08-28T03:40:34.068Z,1013.7
2022-08-28T03:41:43.248Z,1013.7
2022-08-28T03:42:52.416Z,1013.7
2022-08-28T03:44:01.586Z,1013.7
2022-08-28T03:45:10.761Z,1013.7
2022-08-28T03:46:19.929Z,1013.7
2022-08-28T03:47:29.100Z,1013.8
2022-08-28T03:48:37.292Z,1013.7
2022-08-28T03:49:45.500Z,1013.7
2022-08-28T03:50:54.651Z,1013.7
2022-08-28T03:52:03.837Z,1013.7
2022-08-28T03:53:13.019Z,1013.7
2022-08-28T03:54:22.168Z,1013.7
2022-08-28T03:55:31.340Z,1013.7
2022-08-28T03:56:40.523Z,1013.7
2022-08-28T03:57:49.702Z,1013.7
2022-08-28T03:58:58.863Z,1013.8
2022-08-28T04:00:08.037Z,1013.7
2022-08-28T04:01:17.216Z,1013.7
2022-08-28T04:02:26.385Z,1013.7
2022-08-28T04:03:35.557Z,1013.7
2022-08-28T04:04:43.746Z,1013.7
2022-08-28T04:05:52.922Z,1013.8
2022-08-28T04:07:02.095Z,1013.8
2022-08-28T04:08:11.265Z,1013.8
2022-08-28T04:09:20.439Z,1013.7
2022-08-28T04:10:29.611Z,1013.7
2022-08-28T04:11:38.775Z,1013.7
2022-08-28T04:12:47.952Z,1013.7
2022-08-28T04:13:57.121Z,1013.7
2022-08-28T04:15:06.292Z,1013.7
2022-08-28T04:16:15.468Z,1013.7
2022-08-28T04:17:24.649Z,1013.8
2022-08-28T04:18:33.812Z,1013.8
2022-08-28T04:19:42.000Z,1013.9
2022-08-28T04:20:51.177Z,1013.9
2022-08-28T04:22:00.360Z,1013.9
2022-08-28T04:23:09.532Z,1013.9
2022-08-28T04:24:18.693Z,1013.9
2022-08-28T04:25:27.862Z,1013.9
2022-08-28T04:26:37.042Z,1013.9
2022-08-28T04:28:55.398Z,1013.8
2022-08-28T04:30:04.572Z,1013.9
2022-08-28T04:31:13.731Z,1013.9
2022-08-28T04:32:22.894Z,1013.9
2022-08-28T04:33:32.083Z,1014
2022-08-28T04:34:40.263Z,1013.9
2022-08-28T04:35:49.438Z,1013.9
2022-08-28T04:36:58.616Z,1014
2022-08-28T04:38:07.786Z,1013.9
2022-08-28T04:39:16.956Z,1014
2022-08-28T04:40:26.126Z,1014
2022-08-28T04:41:35.309Z,1014
2022-08-28T04:42:44.479Z,1014
2022-08-28T04:43:53.650Z,1014
2022-08-28T04:45:02.832Z,1014
2022-08-28T04:46:11.998Z,1014
2022-08-28T04:47:21.160Z,1014
2022-08-28T04:48:30.326Z,1014
2022-08-28T04:49:38.529Z,1014
2022-08-28T04:50:47.708Z,1014
2022-08-28T04:51:56.886Z,1014.1
2022-08-28T04:53:06.049Z,1014.1
2022-08-28T04:54:15.226Z,1014
2022-08-28T04:55:24.405Z,1014.1
2022-08-28T04:56:33.560Z,1014.1
2022-08-28T04:57:42.739Z,1014.1
2022-08-28T04:58:51.907Z,1014.1
2022-08-28T05:00:01.082Z,1014.1
2022-08-28T05:01:10.260Z,1014.1
2022-08-28T05:02:19.427Z,1014.1
2022-08-28T05:03:28.608Z,1014.1
2022-08-28T05:04:36.799Z,1014.1
2022-08-28T05:05:45.970Z,1014.1
2022-08-28T05:06:55.151Z,1014.2
2022-08-28T05:08:04.312Z,1014.1
2022-08-28T05:09:13.480Z,1014.1
2022-08-28T05:10:22.668Z,1014.2
2022-08-28T05:11:31.834Z,1014.2
2022-08-28T05:12:41.004Z,1014.2
2022-08-28T05:13:50.184Z,1014.2
2022-08-28T05:14:59.353Z,1014.1
2022-08-28T05:16:08.522Z,1014.2
2022-08-28T05:17:17.690Z,1014.2
2022-08-28T05:18:26.868Z,1014.2
2022-08-28T05:19:35.066Z,1014.2
2022-08-28T05:20:44.219Z,1014.2
2022-08-28T05:21:53.412Z,1014.2
2022-08-28T05:23:02.566Z,1014.2
2022-08-28T05:24:11.766Z,1014.1
2022-08-28T05:25:20.925Z,1014.1
2022-08-28T05:26:30.089Z,1014.1
2022-08-28T05:27:39.271Z,1014.1
2022-08-28T05:28:48.441Z,1014.1
2022-08-28T05:29:57.615Z,1014.1
2022-08-28T05:31:06.785Z,1014.1
2022-08-28T05:32:15.964Z,1014.1
2022-08-28T05:33:25.142Z,1014.1
2022-08-28T05:34:33.320Z,1014.2
2022-08-28T05:35:42.488Z,1014.1
2022-08-28T05:36:51.660Z,1014.1
2022-08-28T05:38:00.822Z,1014.1
2022-08-28T05:39:09.994Z,1014.2
2022-08-28T05:40:19.172Z,1014.1
2022-08-28T05:41:28.360Z,1014.2
2022-08-28T05:42:37.530Z,1014.2
2022-08-28T05:43:46.689Z,1014.1
2022-08-28T05:44:55.871Z,1014.1
2022-08-28T05:46:05.046Z,1014.2
2022-08-28T05:47:14.207Z,1014.1
2022-08-28T05:48:23.383Z,1014.1
2022-08-28T05:49:31.576Z,1014.1
2022-08-28T05:50:40.775Z,1014.2
2022-08-28T05:51:49.925Z,1014.2
2022-08-28T05:52:59.090Z,1014.1
2022-08-28T05:54:08.256Z,1014.2
2022-08-28T05:55:17.425Z,1014.2
2022-08-28T05:56:26.610Z,1014.2
2022-08-28T05:57:35.781Z,1014.2
2022-08-28T05:58:44.954Z,1014.2
2022-08-28T05:59:54.134Z,1014.2
2022-08-28T06:01:03.299Z,1014.3
2022-08-28T06:02:12.477Z,1014.2
2022-08-28T06:03:21.641Z,1014.3
2022-08-28T06:04:29.846Z,1014.2
2022-08-28T06:05:39.015Z,1014.3
2022-08-28T06:06:48.184Z,1014.3
2022-08-28T06:07:57.354Z,1014.2
2022-08-28T06:09:06.515Z,1014.3
2022-08-28T06:10:15.694Z,1014.3
2022-08-28T06:11:24.868Z,1014.3
2022-08-28T06:12:34.043Z,1014.3
2022-08-28T06:13:43.230Z,1014.3
2022-08-28T06:14:52.386Z,1014.2
2022-08-28T06:16:01.556Z,1014.3
2022-08-28T06:17:10.734Z,1014.3
2022-08-28T06:18:19.902Z,1014.3
2022-08-28T06:19:28.096Z,1014.3
2022-08-28T06:20:37.271Z,1014.2
2022-08-28T06:21:46.433Z,1014.3
2022-08-28T06:22:55.624Z,1014.3
2022-08-28T06:24:04.812Z,1014.3
2022-08-28T06:25:13.954Z,1014.3
2022-08-28T06:26:23.144Z,1014.4
2022-08-28T06:27:32.311Z,1014.4
2022-08-28T06:28:41.476Z,1014.3
2022-08-28T06:29:50.656Z,1014.4
2022-08-28T06:30:59.815Z,1014.4
2022-08-28T06:32:08.992Z,1014.4
2022-08-28T06:33:18.170Z,1014.4
2022-08-28T06:34:26.369Z,1014.5
2022-08-28T06:35:35.529Z,1014.5
2022-08-28T06:36:44.696Z,1014.5
2022-08-28T06:37:53.875Z,1014.5
2022-08-28T06:39:03.053Z,1014.5
2022-08-28T06:40:12.219Z,1014.5
2022-08-28T06:41:21.386Z,1014.6
2022-08-28T06:42:30.563Z,1014.5
2022-08-28T06:43:39.726Z,1014.6
2022-08-28T06:44:48.903Z,1014.5
2022-08-28T06:45:58.093Z,1014.5
2022-08-28T06:47:07.265Z,1014.5
2022-08-28T06:48:16.418Z,1014.5
2022-08-28T06:49:25.595Z,1014.5
2022-08-28T06:51:43.939Z,1014.5
2022-08-28T06:52:52.133Z,1014.5
2022-08-28T06:54:01.306Z,1014.5
2022-08-28T06:55:10.474Z,1014.4
2022-08-28T06:56:19.649Z,1014.4
2022-08-28T06:57:28.827Z,1014.5
2022-08-28T06:58:37.999Z,1014.5
2022-08-28T06:59:47.167Z,1014.4
2022-08-28T07:00:56.332Z,1014.5
2022-08-28T07:02:05.509Z,1014.4
2022-08-28T07:03:14.688Z,1014.5
2022-08-28T07:04:23.854Z,1014.5
2022-08-28T07:05:33.023Z,1014.4
2022-08-28T07:06:42.192Z,1014.5
2022-08-28T07:07:51.377Z,1014.4
2022-08-28T07:08:59.557Z,1014.4
2022-08-28T07:10:08.729Z,1014.4
2022-08-28T07:11:17.913Z,1014.4
2022-08-28T07:12:27.074Z,1014.4
2022-08-28T07:13:36.244Z,1014.5
2022-08-28T07:14:45.410Z,1014.5
2022-08-28T07:15:54.601Z,1014.5
2022-08-28T07:17:03.771Z,1014.5
2022-08-28T07:18:12.928Z,1014.4
2022-08-28T07:19:22.098Z,1014.5
2022-08-28T07:20:31.293Z,1014.5
2022-08-28T07:21:40.458Z,1014.5
2022-08-28T07:22:49.625Z,1014.5
2022-08-28T07:23:57.803Z,1014.5
2022-08-28T07:25:06.998Z,1014.5
2022-08-28T07:26:16.165Z,1014.5
2022-08-28T07:27:25.336Z,1014.5
2022-08-28T07:28:34.497Z,1014.5
2022-08-28T07:29:43.678Z,1014.5
2022-08-28T07:30:52.849Z,1014.5
2022-08-28T07:32:02.021Z,1014.4
2022-08-28T07:33:11.183Z,1014.5
2022-08-28T07:34:20.370Z,1014.5
2022-08-28T07:35:29.537Z,1014.5
2022-08-28T07:36:38.732Z,1014.5
2022-08-28T07:37:47.883Z,1014.5
2022-08-28T07:38:56.072Z,1014.5
2022-08-28T07:40:05.238Z,1014.5
2022-08-28T07:41:14.427Z,1014.5
2022-08-28T07:42:23.590Z,1014.5
2022-08-28T07:43:32.758Z,1014.5
2022-08-28T07:44:41.934Z,1014.5
2022-08-28T07:45:51.093Z,1014.5
2022-08-28T07:47:00.275Z,1014.5
2022-08-28T07:48:09.460Z,1014.5
2022-08-28T07:49:18.628Z,1014.4
2022-08-28T07:50:27.792Z,1014.5
2022-08-28T07:51:36.974Z,1014.5
2022-08-28T07:52:46.137Z,1014.5
2022-08-28T07:53:54.319Z,1014.5
2022-08-28T07:55:03.497Z,1014.5
2022-08-28T07:56:12.668Z,1014.5
2022-08-28T07:57:21.852Z,1014.6
2022-08-28T07:58:31.010Z,1014.5
2022-08-28T07:59:40.191Z,1014.5
2022-08-28T08:00:49.364Z,1014.6
2022-08-28T08:01:58.534Z,1014.5
2022-08-28T08:03:07.704Z,1014.5
2022-08-28T08:04:16.884Z,1014.5
2022-08-28T08:05:26.046Z,1014.5
2022-08-28T08:06:35.222Z,1014.5
2022-08-28T08:07:44.396Z,1014.5
2022-08-28T08:08:52.583Z,1014.5
2022-08-28T08:10:01.772Z,1014.6
2022-08-28T08:11:10.923Z,1014.6
2022-08-28T08:12:20.112Z,1014.6
2022-08-28T08:13:29.274Z,1014.6
2022-08-28T08:14:38.438Z,1014.6
2022-08-28T08:15:47.620Z,1014.6
2022-08-28T08:16:56.789Z,1014.6
2022-08-28T08:18:05.958Z,1014.7
2022-08-28T08:19:15.135Z,1014.7
2022-08-28T08:20:24.296Z,1014.6
2022-08-28T08:21:33.482Z,1014.6
2022-08-28T08:22:42.654Z,1014.7
2022-08-28T08:23:50.835Z,1014.6
2022-08-28T08:25:00.006Z,1014.6
2022-08-28T08:26:09.196Z,1014.7
2022-08-28T08:27:18.352Z,1014.7
2022-08-28T08:28:27.542Z,1014.7
2022-08-28T08:29:36.704Z,1014.7
2022-08-28T08:30:45.873Z,1014.7
2022-08-28T08:31:55.070Z,1014.7
2022-08-28T08:33:04.228Z,1014.7
2022-08-28T08:34:13.395Z,1014.6
2022-08-28T08:35:22.568Z,1014.7
2022-08-28T08:36:31.736Z,1014.6
2022-08-28T08:37:40.908Z,1014.5
2022-08-28T08:38:49.105Z,1014.6
2022-08-28T08:39:58.275Z,1014.6
2022-08-28T08:41:07.451Z,1014.6
2022-08-28T08:42:16.625Z,1014.6
2022-08-28T08:43:25.787Z,1014.6
2022-08-28T08:44:34.967Z,1014.6
2022-08-28T08:45:44.131Z,1014.6
2022-08-28T08:46:53.310Z,1014.6
2022-08-28T08:48:02.485Z,1014.6
2022-08-28T08:49:11.649Z,1014.6
2022-08-28T08:50:20.818Z,1014.6
2022-08-28T08:51:29.990Z,1014.6
2022-08-28T08:52:39.172Z,1014.6
2022-08-28T08:53:47.372Z,1014.7
2022-08-28T08:54:56.533Z,1014.7
2022-08-28T08:56:05.709Z,1014.8
2022-08-28T08:57:14.871Z,1014.7
2022-08-28T08:58:24.048Z,1014.8
2022-08-28T08:59:33.236Z,1014.8
2022-08-28T09:00:42.393Z,1014.8
2022-08-28T09:01:51.563Z,1014.8
2022-08-28T09:03:00.738Z,1014.7
2022-08-28T09:04:09.911Z,1014.7
2022-08-28T09:05:19.100Z,1014.8
2022-08-28T09:06:28.259Z,1014.8
2022-08-28T09:07:37.430Z,1014.7
2022-08-28T09:08:46.603Z,1014.8
2022-08-28T09:09:54.788Z,1014.6
2022-08-28T09:11:03.957Z,1014.6
2022-08-28T09:12:13.131Z,1014.6
2022-08-28T09:13:22.314Z,1014.7
2022-08-28T09:14:31.479Z,1014.6
2022-08-28T09:15:40.670Z,1014.7
2022-08-28T09:16:49.822Z,1014.6
2022-08-28T09:17:58.996Z,1014.6
2022-08-28T09:19:08.188Z,1014.7
2022-08-28T09:20:17.347Z,1014.7
2022-08-28T09:21:26.517Z,1014.7
2022-08-28T09:22:35.694Z,1014.7
2022-08-28T09:23:44.882Z,1014.7
2022-08-28T09:24:53.045Z,1014.6
2022-08-28T09:26:02.217Z,1014.7
2022-08-28T09:27:11.392Z,1014.7
2022-08-28T09:28:20.562Z,1014.7
2022-08-28T09:29:29.728Z,1014.8
2022-08-28T09:30:38.918Z,1014.7
2022-08-28T09:31:48.101Z,1014.8
2022-08-28T09:32:57.270Z,1014.8
2022-08-28T09:34:06.429Z,1014.8
2022-08-28T09:35:15.602Z,1014.8
2022-08-28T09:36:24.767Z,1014.8
2022-08-28T09:37:33.931Z,1014.8
2022-08-28T09:38:43.117Z,1014.8
2022-08-28T09:39:51.310Z,1014.7
2022-08-28T09:41:00.483Z,1014.8
2022-08-28T09:42:09.638Z,1014.7
2022-08-28T09:43:18.829Z,1014.8
2022-08-28T09:44:27.994Z,1014.7
2022-08-28T09:45:37.172Z,1014.8
2022-08-28T09:46:46.333Z,1014.7
2022-08-28T09:47:55.518Z,1014.7
2022-08-28T09:49:04.686Z,1014.8
2022-08-28T09:50:13.857Z,1014.7
2022-08-28T09:51:23.029Z,1014.7
2022-08-28T09:52:32.198Z,1014.7
2022-08-28T09:53:41.377Z,1014.7
2022-08-28T09:54:49.562Z,1014.7
2022-08-28T09:55:58.741Z,1014.7
2022-08-28T09:57:07.904Z,1014.7
2022-08-28T09:58:17.073Z,1014.6
2022-08-28T09:59:26.255Z,1014.6
2022-08-28T10:00:35.423Z,1014.6
2022-08-28T10:01:44.603Z,1014.6
2022-08-28T10:02:53.775Z,1014.7
2022-08-28T10:04:02.951Z,1014.7
2022-08-28T10:05:12.125Z,1014.7
2022-08-28T10:06:21.293Z,1014.7
2022-08-28T10:07:30.458Z,1014.6
2022-08-28T10:08:39.635Z,1014.6
2022-08-28T10:09:47.828Z,1014.6
2022-08-28T10:10:57.001Z,1014.6
2022-08-28T10:12:06.160Z,1014.5
2022-08-28T10:13:15.342Z,1014.5
2022-08-28T10:14:24.517Z,1014.5
2022-08-28T10:15:33.680Z,1014.6
2022-08-28T10:16:42.865Z,1014.5
2022-08-28T10:17:52.024Z,1014.6
2022-08-28T10:19:01.192Z,1014.6
2022-08-28T10:20:10.367Z,1014.6
2022-08-28T10:21:19.548Z,1014.6
2022-08-28T10:23:37.884Z,1014.6
2022-08-28T10:24:46.074Z,1014.6
2022-08-28T10:25:54.267Z,1014.5
2022-08-28T10:28:12.603Z,1014.6
2022-08-28T10:29:21.783Z,1014.7
2022-08-28T10:30:30.958Z,1014.6
2022-08-28T10:31:40.141Z,1014.6
2022-08-28T10:32:49.313Z,1014.6
2022-08-28T10:33:58.472Z,1014.7
2022-08-28T10:35:07.656Z,1014.6
2022-08-28T10:36:16.829Z,1014.5
2022-08-28T10:37:25.996Z,1014.6
2022-08-28T10:38:34.191Z,1014.6
2022-08-28T10:39:42.386Z,1014.5
2022-08-28T10:40:51.548Z,1014.7
2022-08-28T10:42:00.717Z,1014.6
2022-08-28T10:43:08.919Z,1014.6
2022-08-28T10:44:17.106Z,1014.5
2022-08-28T10:45:26.277Z,1014.5
2022-08-28T10:46:35.445Z,1014.6
2022-08-28T10:47:44.648Z,1014.7
2022-08-28T10:48:53.820Z,1014.6
2022-08-28T10:50:02.967Z,1014.6
2022-08-28T10:51:12.135Z,1014.6
2022-08-28T10:52:21.325Z,1014.6
2022-08-28T10:53:30.493Z,1014.6
2022-08-28T10:54:39.669Z,1014.6
2022-08-28T10:55:48.823Z,1014.6
2022-08-28T10:56:58.006Z,1014.6
2022-08-28T10:58:07.179Z,1014.6
2022-08-28T10:59:15.363Z,1014.6
2022-08-28T11:00:24.539Z,1014.5
2022-08-28T11:01:33.700Z,1014.5
2022-08-28T11:02:42.887Z,1014.6
2022-08-28T11:03:52.054Z,1014.6
2022-08-28T11:05:01.236Z,1014.5
2022-08-28T11:06:10.401Z,1014.6
2022-08-28T11:07:19.570Z,1014.5
2022-08-28T11:08:28.737Z,1014.5
2022-08-28T11:09:37.906Z,1014.5
2022-08-28T11:10:47.085Z,1014.5
2022-08-28T11:11:56.262Z,1014.6
2022-08-28T11:13:05.433Z,1014.5
2022-08-28T11:14:13.627Z,1014.5
2022-08-28T11:15:22.784Z,1014.6
2022-08-28T11:16:31.967Z,1014.5
2022-08-28T11:17:41.141Z,1014.6
2022-08-28T11:18:50.328Z,1014.6
2022-08-28T11:19:59.480Z,1014.5
2022-08-28T11:22:17.833Z,1014.5
2022-08-28T11:23:27.008Z,1014.5
2022-08-28T11:24:36.193Z,1014.5
2022-08-28T11:25:45.354Z,1014.5
2022-08-28T11:26:54.520Z,1014.6
2022-08-28T11:28:03.689Z,1014.6
2022-08-28T11:29:11.884Z,1014.6
2022-08-28T11:30:21.065Z,1014.7
2022-08-28T11:31:30.224Z,1014.6
2022-08-28T11:32:39.394Z,1014.5
2022-08-28T11:33:48.567Z,1014.6
2022-08-28T11:34:57.746Z,1014.6
2022-08-28T11:36:06.915Z,1014.6
2022-08-28T11:37:16.085Z,1014.5
2022-08-28T11:38:25.264Z,1014.5
2022-08-28T11:39:34.430Z,1014.6
2022-08-28T11:40:43.598Z,1014.6
2022-08-28T11:41:52.781Z,1014.6
2022-08-28T11:43:01.953Z,1014.5
2022-08-28T11:44:10.142Z,1014.6
2022-08-28T11:45:19.319Z,1014.5
2022-08-28T11:46:28.478Z,1014.6
2022-08-28T11:47:37.649Z,1014.6
2022-08-28T11:48:46.833Z,1014.6
2022-08-28T11:49:56.005Z,1014.6
2022-08-28T11:51:05.161Z,1014.6
2022-08-28T11:52:14.353Z,1014.5
2022-08-28T11:53:23.508Z,1014.5
2022-08-28T11:54:32.699Z,1014.6
2022-08-28T11:55:41.866Z,1014.5
2022-08-28T11:56:51.041Z,1014.4
2022-08-28T11:59:08.390Z,1014.5
2022-08-28T12:00:17.566Z,1014.6
2022-08-28T12:01:26.746Z,1014.6
2022-08-28T12:02:35.916Z,1014.6
2022-08-28T12:03:45.089Z,1014.6
2022-08-28T12:04:54.257Z,1014.5
2022-08-28T12:06:03.462Z,1014.5
2022-08-28T12:07:12.599Z,1014.5
2022-08-28T12:08:21.769Z,1014.5
2022-08-28T12:09:30.956Z,1014.5
2022-08-28T12:10:40.124Z,1014.5
2022-08-28T12:11:49.295Z,1014.5
2022-08-28T12:12:58.468Z,1014.5
2022-08-28T12:14:06.650Z,1014.6
2022-08-28T12:15:15.831Z,1014.6
2022-08-28T12:16:25.011Z,1014.6
2022-08-28T12:17:34.174Z,1014.6
2022-08-28T12:18:43.352Z,1014.6
2022-08-28T12:19:52.524Z,1014.5
2022-08-28T12:21:01.694Z,1014.6
2022-08-28T12:22:10.861Z,1014.5
2022-08-28T12:23:19.055Z,1014.5
2022-08-28T12:24:27.255Z,1014.5
2022-08-28T12:25:36.420Z,1014.5
2022-08-28T12:26:45.592Z,1014.4
2022-08-28T12:27:54.772Z,1014.4
2022-08-28T12:29:03.952Z,1014.4
2022-08-28T12:31:22.293Z,1014.4
2022-08-28T12:32:31.454Z,1014.4
2022-08-28T12:33:40.622Z,1014.4
2022-08-28T12:34:49.801Z,1014.4
2022-08-28T12:35:58.966Z,1014.3
2022-08-28T12:37:08.153Z,1014.3
2022-08-28T12:38:17.313Z,1014.3
2022-08-28T12:39:25.504Z,1014.3
2022-08-28T12:40:34.672Z,1014.3
2022-08-28T12:41:43.854Z,1014.3
2022-08-28T12:42:53.019Z,1014.3
2022-08-28T12:44:02.200Z,1014.2
2022-08-28T12:45:11.358Z,1014.2
2022-08-28T12:46:20.544Z,1014.1
2022-08-28T12:47:28.733Z,1014.2
2022-08-28T12:48:36.919Z,1014.2
2022-08-28T12:49:46.090Z,1014.3
2022-08-28T12:50:55.271Z,1014.3
2022-08-28T12:52:04.445Z,1014.3
2022-08-28T12:53:13.614Z,1014.3
2022-08-28T12:54:22.785Z,1014.4
2022-08-28T12:55:31.962Z,1014.3
2022-08-28T12:56:41.145Z,1014.3
2022-08-28T12:57:50.316Z,1014.3
2022-08-28T12:58:59.471Z,1014.3
2022-08-28T13:00:08.658Z,1014.3
2022-08-28T13:01:17.824Z,1014.3
2022-08-28T13:02:27.005Z,1014.2
2022-08-28T13:03:35.174Z,1014.2
2022-08-28T13:04:44.358Z,1014.1
2022-08-28T13:07:02.698Z,1014.3
2022-08-28T13:08:11.884Z,1014.3
2022-08-28T13:09:21.060Z,1014.2
2022-08-28T13:10:30.212Z,1014.2
2022-08-28T13:11:39.384Z,1014.2
2022-08-28T13:12:48.564Z,1014.3
2022-08-28T13:15:06.915Z,1014.2
2022-08-28T13:16:16.090Z,1014.2
2022-08-28T13:17:25.251Z,1014.2
2022-08-28T13:18:33.448Z,1014.1
2022-08-28T13:19:42.624Z,1014.2
2022-08-28T13:20:51.796Z,1014.1
2022-08-28T13:22:00.959Z,1014.1
2022-08-28T13:23:10.130Z,1014.2
2022-08-28T13:24:19.301Z,1014.1
2022-08-28T13:25:28.481Z,1014.1
2022-08-28T13:26:37.653Z,1014.1
2022-08-28T13:27:46.831Z,1014
2022-08-28T13:28:56.001Z,1014
2022-08-28T13:30:05.159Z,1014
2022-08-28T13:31:14.342Z,1014.1
2022-08-28T13:32:23.517Z,1014
2022-08-28T13:33:31.705Z,1014
2022-08-28T13:34:40.877Z,1014
2022-08-28T13:35:50.053Z,1014
2022-08-28T13:36:59.219Z,1014.1
2022-08-28T13:38:08.387Z,1014
2022-08-28T13:39:17.565Z,1014
2022-08-28T13:40:26.745Z,1014.1
2022-08-28T13:41:35.920Z,1014
2022-08-28T13:42:45.092Z,1014.1
2022-08-28T13:43:54.264Z,1014.2
2022-08-28T13:45:03.433Z,1014.1
2022-08-28T13:46:12.590Z,1014
2022-08-28T13:47:21.774Z,1014
2022-08-28T13:48:30.938Z,1014
2022-08-28T13:49:39.142Z,1013.9
2022-08-28T13:50:48.305Z,1014
2022-08-28T13:51:57.469Z,1014
2022-08-28T13:53:06.651Z,1014
2022-08-28T13:54:15.832Z,1014
2022-08-28T13:55:25.003Z,1014
2022-08-28T13:56:34.177Z,1013.9
2022-08-28T13:57:43.342Z,1014
2022-08-28T13:58:52.512Z,1014
2022-08-28T14:00:01.714Z,1014
2022-08-28T14:01:09.881Z,1013.9
2022-08-28T14:03:27.238Z,1013.7
2022-08-28T14:04:36.412Z,1013.9
2022-08-28T14:05:45.594Z,1013.9
2022-08-28T14:06:54.761Z,1013.9
2022-08-28T14:08:03.945Z,1013.9
2022-08-28T14:09:13.110Z,1013.9
2022-08-28T14:10:21.311Z,1013.9
2022-08-28T14:11:29.490Z,1013.9
2022-08-28T14:12:38.667Z,1013.8
2022-08-28T14:13:47.829Z,1013.7
2022-08-28T14:16:06.186Z,1013.7
2022-08-28T14:17:14.376Z,1013.7
2022-08-28T14:18:23.549Z,1013.8
2022-08-28T14:19:32.718Z,1013.8
2022-08-28T14:20:41.886Z,1013.8
2022-08-28T14:21:51.058Z,1013.8
2022-08-28T14:23:00.241Z,1013.8
2022-08-28T14:24:09.422Z,1013.9
2022-08-28T14:25:18.577Z,1013.9
2022-08-28T14:26:27.747Z,1013.9
2022-08-28T14:27:36.928Z,1013.9
2022-08-28T14:28:46.103Z,1014
2022-08-28T14:29:55.269Z,1013.9
2022-08-28T14:31:04.448Z,1014
2022-08-28T14:32:12.624Z,1014
2022-08-28T14:33:21.807Z,1013.9
2022-08-28T14:34:30.975Z,1013.9
2022-08-28T14:35:40.154Z,1013.9
2022-08-28T14:36:49.324Z,1013.9
2022-08-28T14:37:58.496Z,1013.9
2022-08-28T14:39:07.668Z,1013.9
2022-08-28T14:40:16.849Z,1013.9
2022-08-28T14:41:26.007Z,1013.8
2022-08-28T14:42:35.191Z,1013.8
2022-08-28T14:43:44.363Z,1013.8
2022-08-28T14:44:53.535Z,1013.8
2022-08-28T14:46:02.713Z,1013.8
2022-08-28T14:47:10.900Z,1013.8